Time;durP1;ratioP1;P1;durP2;ratioP2;P2;SDS_P1;SDS_P2;PMS_P1;PMS_P2;Temp;Humidity;BMP_temperature;BMP_pressure;BME280_temperature;BME280_humidity;BME280_pressure;Samples;Min_cycle;Max_cycle;Signal;HPM_P1;HPM_P2
2022/02/26 00:00:06;;;;;;;22.40;11.00;;;;;;;-0.38;100.00;102358.75;675836;29;1180;-50
2022/02/26 00:00:27;;;;;;;22.67;11.27;;;;;;;-0.31;100.00;102360.94;673901;29;3716;-54
2022/02/26 00:00:47;;;;;;;23.20;10.73;;;;;;;-0.28;100.00;102356.00;676408;29;1199;-51
2022/02/26 00:01:08;;;;;;;19.85;10.73;;;;;;;-0.24;100.00;102364.81;676418;29;974;-52
2022/02/26 00:01:29;;;;;;;21.75;10.70;;;;;;;-0.26;100.00;102358.72;675502;29;5385;-54
2022/02/26 00:01:49;;;;;;;20.80;10.90;;;;;;;-0.29;100.00;102353.34;676547;29;1126;-51
2022/02/26 00:02:09;;;;;;;20.65;10.68;;;;;;;-0.30;100.00;102352.47;676947;29;1003;-52
2022/02/26 00:02:33;;;;;;;19.10;9.93;;;;;;;-0.33;100.00;102354.84;674622;29;1456;-51
2022/02/26 00:02:53;;;;;;;19.75;9.70;;;;;;;-0.33;100.00;102361.63;675638;29;1018;-53
2022/02/26 00:03:14;;;;;;;22.43;9.70;;;;;;;-0.35;100.00;102366.69;676511;29;3586;-50
2022/02/26 00:03:37;;;;;;;17.88;9.00;;;;;;;-0.41;100.00;102361.13;675977;29;1419;-53
2022/02/26 00:03:57;;;;;;;17.10;9.00;;;;;;;-0.39;100.00;102364.69;673087;29;2364;-53
2022/02/26 00:04:18;;;;;;;19.03;9.20;;;;;;;-0.39;100.00;102369.81;676650;29;4458;-51
2022/02/26 00:04:38;;;;;;;18.88;9.35;;;;;;;-0.42;100.00;102364.50;676114;29;1211;-53
2022/02/26 00:04:59;;;;;;;21.40;9.80;;;;;;;-0.46;100.00;102365.94;674924;29;1383;-52
2022/02/26 00:05:19;;;;;;;18.55;8.95;;;;;;;-0.47;100.00;102365.84;676085;29;1082;-51
2022/02/26 00:05:44;;;;;;;17.63;8.90;;;;;;;-0.53;100.00;102364.66;676193;29;1110;-52
2022/02/26 00:06:04;;;;;;;19.90;9.40;;;;;;;-0.58;100.00;102360.88;674589;29;3468;-50
2022/02/26 00:06:25;;;;;;;19.40;9.38;;;;;;;-0.61;100.00;102370.97;677077;29;1180;-51
2022/02/26 00:06:45;;;;;;;17.70;9.10;;;;;;;-0.67;100.00;102365.38;678312;28;1234;-51
2022/02/26 00:07:05;;;;;;;18.65;9.18;;;;;;;-0.69;100.00;102374.69;678715;29;955;-50
2022/02/26 00:07:26;;;;;;;19.77;9.67;;;;;;;-0.73;100.00;102363.28;678632;29;4313;-51
2022/02/26 00:07:46;;;;;;;20.70;9.80;;;;;;;-0.76;100.00;102363.09;678810;29;987;-52
2022/02/26 00:08:07;;;;;;;15.77;9.20;;;;;;;-0.77;100.00;102363.88;675440;29;1013;-52
2022/02/26 00:08:27;;;;;;;18.33;9.70;;;;;;;-0.80;100.00;102367.88;673137;29;1339;-51
2022/02/26 00:08:47;;;;;;;17.20;9.37;;;;;;;-0.80;100.00;102367.88;674286;29;3613;-51
2022/02/26 00:09:08;;;;;;;18.80;9.48;;;;;;;-0.81;100.00;102367.00;673814;29;1198;-51
2022/02/26 00:09:28;;;;;;;19.50;9.77;;;;;;;-0.78;100.00;102366.34;673649;29;1380;-51
2022/02/26 00:09:49;;;;;;;17.90;9.57;;;;;;;-0.80;100.00;102366.22;673575;29;960;-50
2022/02/26 00:10:09;;;;;;;16.37;8.93;;;;;;;-0.78;100.00;102367.22;675941;29;1558;-51
2022/02/26 00:10:30;;;;;;;15.32;8.70;;;;;;;-0.72;100.00;102362.50;676517;29;4389;-50
2022/02/26 00:10:50;;;;;;;15.85;8.23;;;;;;;-0.61;100.00;102362.34;673775;29;1188;-52
2022/02/26 00:11:11;;;;;;;16.27;8.03;;;;;;;-0.52;100.00;102355.28;671756;29;1360;-51
2022/02/26 00:11:35;;;;;;;18.25;8.43;;;;;;;-0.47;100.00;102368.41;671442;29;3253;-51
2022/02/26 00:11:56;;;;;;;18.00;8.57;;;;;;;-0.48;100.00;102364.97;667806;29;2427;-51
2022/02/26 00:12:16;;;;;;;17.17;8.43;;;;;;;-0.52;100.00;102365.53;668009;29;1172;-51
2022/02/26 00:12:37;;;;;;;17.83;9.47;;;;;;;-0.58;100.00;102370.25;669474;29;1117;-51
2022/02/26 00:12:57;;;;;;;16.70;9.13;;;;;;;-0.62;100.00;102364.03;673546;29;1029;-50
2022/02/26 00:13:17;;;;;;;17.10;8.73;;;;;;;-0.66;100.00;102368.88;674343;29;4472;-52
2022/02/26 00:13:38;;;;;;;19.52;8.82;;;;;;;-0.72;100.00;102367.66;675344;29;1129;-51
2022/02/26 00:14:01;;;;;;;19.25;8.93;;;;;;;-0.74;100.00;102370.91;678614;28;1141;-50
2022/02/26 00:14:21;;;;;;;16.73;8.45;;;;;;;-0.73;100.00;102372.69;679473;29;1890;-53
2022/02/26 00:14:41;;;;;;;15.13;8.47;;;;;;;-0.69;100.00;102372.13;677371;29;3817;-50
2022/02/26 00:15:02;;;;;;;14.77;8.00;;;;;;;-0.64;100.00;102373.28;678306;28;1280;-52
2022/02/26 00:15:23;;;;;;;15.40;8.07;;;;;;;-0.61;100.00;102373.53;678295;29;1269;-51
2022/02/26 00:15:43;;;;;;;14.87;8.60;;;;;;;-0.56;100.00;102368.69;678680;29;999;-50
2022/02/26 00:16:04;;;;;;;14.93;8.05;;;;;;;-0.49;100.00;102377.72;678642;28;1177;-51
2022/02/26 00:16:24;;;;;;;13.88;7.88;;;;;;;-0.45;100.00;102375.44;678981;29;4646;-50
2022/02/26 00:16:44;;;;;;;11.93;7.53;;;;;;;-0.40;100.00;102378.31;677346;29;1082;-51
2022/02/26 00:17:05;;;;;;;12.87;7.40;;;;;;;-0.32;100.00;102381.41;678631;28;3352;-52
2022/02/26 00:17:25;;;;;;;15.03;7.43;;;;;;;-0.30;100.00;102374.72;678823;28;3622;-51
2022/02/26 00:17:46;;;;;;;16.93;7.73;;;;;;;-0.18;100.00;102383.22;679493;29;1260;-50
2022/02/26 00:18:07;;;;;;;15.05;7.47;;;;;;;-0.06;100.00;102384.03;678278;28;1160;-51
2022/02/26 00:18:27;;;;;;;14.30;7.70;;;;;;;0.04;100.00;102382.97;679155;29;1070;-52
2022/02/26 00:18:48;;;;;;;14.30;7.45;;;;;;;0.10;100.00;102382.50;679496;29;899;-50
2022/02/26 00:19:08;;;;;;;14.27;7.47;;;;;;;0.12;100.00;102383.47;678275;28;969;-50
2022/02/26 00:19:28;;;;;;;13.93;7.40;;;;;;;0.17;100.00;102385.56;679396;29;4377;-50
2022/02/26 00:19:49;;;;;;;12.50;6.97;;;;;;;0.12;100.00;102391.19;679822;29;1094;-50
2022/02/26 00:20:10;;;;;;;14.45;7.82;;;;;;;0.03;100.00;102385.44;678087;28;3457;-51
2022/02/26 00:20:30;;;;;;;13.75;7.32;;;;;;;-0.06;100.00;102389.16;678665;28;1922;-51
2022/02/26 00:20:51;;;;;;;15.68;7.47;;;;;;;-0.14;100.00;102390.34;677547;28;1311;-51
2022/02/26 00:21:12;;;;;;;17.17;7.80;;;;;;;-0.24;100.00;102393.09;677876;28;1278;-52
2022/02/26 00:21:32;;;;;;;15.48;8.02;;;;;;;-0.36;100.00;102394.06;679421;29;1507;-52
2022/02/26 00:21:53;;;;;;;16.73;7.97;;;;;;;-0.48;100.00;102392.34;677813;29;1272;-52
2022/02/26 00:22:14;;;;;;;17.80;8.75;;;;;;;-0.62;100.00;102396.50;677190;29;4499;-52
2022/02/26 00:22:34;;;;;;;15.43;7.73;;;;;;;-0.66;100.00;102390.28;680051;29;1204;-51
2022/02/26 00:22:55;;;;;;;16.27;8.20;;;;;;;-0.71;100.00;102397.69;677590;28;3499;-51
2022/02/26 00:23:15;;;;;;;14.87;7.50;;;;;;;-0.72;100.00;102401.03;678663;29;1382;-51
2022/02/26 00:23:36;;;;;;;13.30;7.50;;;;;;;-0.75;100.00;102395.69;678404;29;1282;-50
2022/02/26 00:23:56;;;;;;;13.77;8.33;;;;;;;-0.74;100.00;102400.03;678648;28;2686;-50
2022/02/26 00:24:16;;;;;;;14.27;7.78;;;;;;;-0.74;100.00;102399.16;679468;28;1048;-52
2022/02/26 00:24:37;;;;;;;13.27;7.43;;;;;;;-0.73;100.00;102406.97;677868;29;935;-52
2022/02/26 00:24:57;;;;;;;12.18;7.30;;;;;;;-0.64;100.00;102404.13;679074;28;1054;-49
2022/02/26 00:25:17;;;;;;;13.57;7.37;;;;;;;-0.56;100.00;102399.53;678250;29;4461;-52
2022/02/26 00:25:38;;;;;;;12.20;7.78;;;;;;;-0.50;100.00;102404.19;679015;29;3195;-51
2022/02/26 00:25:58;;;;;;;14.17;7.70;;;;;;;-0.53;100.00;102408.34;677104;28;3870;-52
2022/02/26 00:26:22;;;;;;;13.13;7.37;;;;;;;-0.54;100.00;102410.78;678011;29;1577;-52
2022/02/26 00:26:42;;;;;;;13.32;7.60;;;;;;;-0.59;100.00;102409.59;676291;29;1136;-51
2022/02/26 00:27:03;;;;;;;12.70;7.40;;;;;;;-0.61;100.00;102406.00;676658;29;1091;-50
2022/02/26 00:27:23;;;;;;;12.70;7.20;;;;;;;-0.62;100.00;102410.28;676294;29;1173;-51
2022/02/26 00:27:44;;;;;;;14.73;7.30;;;;;;;-0.61;100.00;102408.59;674475;29;1139;-51
2022/02/26 00:28:04;;;;;;;13.60;6.90;;;;;;;-0.54;100.00;102413.34;674269;29;1070;-51
2022/02/26 00:28:26;;;;;;;12.90;7.40;;;;;;;-0.52;100.00;102406.66;673232;29;4381;-50
2022/02/26 00:28:47;;;;;;;12.45;7.45;;;;;;;-0.54;100.00;102408.22;675053;29;3413;-50
2022/02/26 00:29:07;;;;;;;14.20;7.53;;;;;;;-0.59;100.00;102409.59;673911;29;1190;-54
2022/02/26 00:29:28;;;;;;;13.73;7.60;;;;;;;-0.61;100.00;102411.16;674432;29;1106;-51
2022/02/26 00:29:50;;;;;;;14.30;7.60;;;;;;;-0.65;100.00;102409.16;677029;28;1207;-50
2022/02/26 00:30:11;;;;;;;14.03;7.47;;;;;;;-0.64;100.00;102408.38;678946;29;1094;-54
2022/02/26 00:30:32;;;;;;;12.57;6.88;;;;;;;-0.55;100.00;102402.19;677667;29;1292;-51
2022/02/26 00:30:52;;;;;;;12.40;6.68;;;;;;;-0.41;100.00;102415.97;679027;29;1241;-51
2022/02/26 00:31:13;;;;;;;12.35;6.65;;;;;;;-0.34;100.00;102401.88;678262;29;4403;-50
2022/02/26 00:31:34;;;;;;;11.82;6.78;;;;;;;-0.37;100.00;102411.94;678438;28;3567;-50
2022/02/26 00:31:54;;;;;;;12.23;7.43;;;;;;;-0.48;100.00;102403.50;678219;29;1252;-54
2022/02/26 00:32:15;;;;;;;13.40;7.20;;;;;;;-0.50;100.00;102412.78;679637;29;1203;-53
2022/02/26 00:32:35;;;;;;;14.95;7.18;;;;;;;-0.57;100.00;102410.56;678081;29;1460;-51
2022/02/26 00:32:55;;;;;;;13.77;7.30;;;;;;;-0.63;100.00;102410.16;677862;28;1334;-50
2022/02/26 00:33:16;;;;;;;12.10;7.03;;;;;;;-0.66;100.00;102415.09;678538;29;1189;-50
2022/02/26 00:33:36;;;;;;;14.25;7.55;;;;;;;-0.70;100.00;102417.44;678698;29;1076;-51
2022/02/26 00:33:57;;;;;;;13.45;7.43;;;;;;;-0.75;100.00;102417.91;678672;28;1161;-51
2022/02/26 00:34:17;;;;;;;12.60;7.23;;;;;;;-0.80;100.00;102415.03;676788;28;4554;-54
2022/02/26 00:34:38;;;;;;;11.73;6.97;;;;;;;-0.84;100.00;102418.16;679095;28;1221;-53
2022/02/26 00:34:58;;;;;;;12.00;6.97;;;;;;;-0.86;100.00;102415.50;677638;28;1139;-53
2022/02/26 00:35:19;;;;;;;12.65;6.90;;;;;;;-0.86;100.00;102415.50;675404;29;1075;-54
2022/02/26 00:35:40;;;;;;;14.13;7.37;;;;;;;-0.83;100.00;102413.91;676418;29;1208;-50
2022/02/26 00:36:01;;;;;;;11.27;7.80;;;;;;;-0.78;100.00;102426.28;676368;29;1061;-53
2022/02/26 00:36:21;;;;;;;10.18;6.70;;;;;;;-0.69;100.00;102421.78;676167;29;1058;-50
2022/02/26 00:36:42;;;;;;;11.10;6.87;;;;;;;-0.65;100.00;102416.88;677148;29;1169;-50
2022/02/26 00:37:03;;;;;;;10.95;7.15;;;;;;;-0.65;100.00;102422.00;677372;29;3171;-50
2022/02/26 00:37:23;;;;;;;12.52;7.43;;;;;;;-0.74;100.00;102415.44;678353;29;4754;-50
2022/02/26 00:37:43;;;;;;;13.73;7.50;;;;;;;-0.76;100.00;102422.16;679155;29;1789;-53
2022/02/26 00:38:04;;;;;;;13.35;7.72;;;;;;;-0.71;100.00;102425.94;679751;29;1260;-51
2022/02/26 00:38:26;;;;;;;11.57;7.07;;;;;;;-0.63;100.00;102425.59;679937;29;1075;-54
2022/02/26 00:38:46;;;;;;;12.73;7.03;;;;;;;-0.60;100.00;102420.66;680190;29;1897;-52
2022/02/26 00:39:07;;;;;;;12.93;7.18;;;;;;;-0.61;100.00;102424.00;679443;28;1030;-52
2022/02/26 00:39:27;;;;;;;9.93;6.73;;;;;;;-0.65;100.00;102422.91;678383;29;1133;-52
2022/02/26 00:39:47;;;;;;;11.32;7.10;;;;;;;-0.70;100.00;102424.25;677703;29;1944;-53
2022/02/26 00:40:08;;;;;;;11.67;7.10;;;;;;;-0.76;100.00;102424.72;676452;29;2058;-53
2022/02/26 00:40:29;;;;;;;11.35;7.20;;;;;;;-0.79;100.00;102428.75;676381;29;5630;-50
2022/02/26 00:40:49;;;;;;;14.13;7.68;;;;;;;-0.76;100.00;102427.28;676884;29;1167;-53
2022/02/26 00:41:10;;;;;;;14.90;7.20;;;;;;;-0.73;100.00;102430.06;676636;29;1257;-51
2022/02/26 00:41:30;;;;;;;10.15;6.70;;;;;;;-0.71;100.00;102427.59;679828;29;1236;-50
2022/02/26 00:41:51;;;;;;;10.00;6.60;;;;;;;-0.71;100.00;102430.19;678368;29;1443;-52
2022/02/26 00:42:11;;;;;;;11.77;7.07;;;;;;;-0.72;100.00;102430.94;677907;29;1272;-50
2022/02/26 00:42:32;;;;;;;11.87;7.20;;;;;;;-0.78;100.00;102423.72;678867;29;4224;-53
2022/02/26 00:42:52;;;;;;;11.50;6.90;;;;;;;-0.81;100.00;102430.34;673870;29;3515;-52
2022/02/26 00:43:13;;;;;;;12.25;6.93;;;;;;;-0.81;100.00;102433.78;675242;29;4333;-50
2022/02/26 00:43:33;;;;;;;12.00;7.13;;;;;;;-0.81;100.00;102435.47;674100;29;1502;-53
2022/02/26 00:43:54;;;;;;;12.85;7.10;;;;;;;-0.86;100.00;102436.03;676589;29;1047;-54
2022/02/26 00:44:14;;;;;;;10.40;7.15;;;;;;;-0.87;100.00;102435.94;675458;29;1138;-54
2022/02/26 00:44:38;;;;;;;9.77;6.93;;;;;;;-0.90;100.00;102433.13;677596;29;1109;-51
2022/02/26 00:44:59;;;;;;;11.38;7.00;;;;;;;-0.93;100.00;102436.41;677320;28;1028;-51
2022/02/26 00:45:19;;;;;;;11.43;7.15;;;;;;;-0.88;100.00;102436.72;679439;29;1185;-50
2022/02/26 00:45:40;;;;;;;10.43;6.90;;;;;;;-0.85;100.00;102431.78;678115;28;3321;-52
2022/02/26 00:46:00;;;;;;;12.13;7.30;;;;;;;-0.92;100.00;102427.00;678671;28;1356;-52
2022/02/26 00:46:20;;;;;;;12.33;7.50;;;;;;;-0.94;100.00;102431.13;678465;29;4478;-51
2022/02/26 00:46:44;;;;;;;11.50;7.03;;;;;;;-0.95;100.00;102434.50;678176;29;1098;-52
2022/02/26 00:47:06;;;;;;;11.98;7.35;;;;;;;-1.01;100.00;102434.97;675895;29;1106;-51
2022/02/26 00:47:26;;;;;;;9.93;6.57;;;;;;;-1.06;100.00;102436.31;675797;29;1315;-50
2022/02/26 00:47:48;;;;;;;12.35;7.05;;;;;;;-1.08;100.00;102443.91;674068;29;1243;-51
2022/02/26 00:48:08;;;;;;;12.10;7.40;;;;;;;-1.12;100.00;102433.28;673562;29;1304;-54
2022/02/26 00:49:50;;;;;;;11.07;7.28;;;;;;;-1.21;100.00;102441.22;678401;29;4925;-51
2022/02/26 00:50:11;;;;;;;10.43;6.97;;;;;;;-1.21;100.00;102436.09;679423;29;968;-51
2022/02/26 00:50:31;;;;;;;11.37;7.43;;;;;;;-1.18;100.00;102440.56;678802;29;1209;-51
2022/02/26 00:50:51;;;;;;;11.50;7.43;;;;;;;-1.18;100.00;102443.13;678595;28;1272;-52
2022/02/26 00:51:12;;;;;;;10.80;7.33;;;;;;;-1.20;100.00;102443.03;679526;29;3300;-50
2022/02/26 00:51:32;;;;;;;12.10;7.67;;;;;;;-1.22;100.00;102442.00;677952;28;3375;-50
2022/02/26 00:51:53;;;;;;;11.43;7.80;;;;;;;-1.25;100.00;102442.66;678708;28;1281;-50
2022/02/26 00:52:22;;;;;;;11.83;7.90;;;;;;;-1.29;100.00;102437.22;678384;29;4449;-50
2022/02/26 00:52:45;;;;;;;11.82;7.38;;;;;;;-1.30;100.00;102444.03;678647;29;1102;-50
2022/02/26 00:53:08;;;;;;;9.97;6.83;;;;;;;-1.27;100.00;102445.94;678395;28;1002;-51
2022/02/26 00:53:28;;;;;;;11.15;7.50;;;;;;;-1.24;100.00;102435.88;678538;29;1172;-54
2022/02/26 00:53:49;;;;;;;12.17;7.70;;;;;;;-1.23;100.00;102443.69;679003;29;1173;-51
2022/02/26 00:54:09;;;;;;;12.48;7.47;;;;;;;-1.16;100.00;102442.47;676276;29;3675;-53
2022/02/26 00:54:29;;;;;;;12.20;7.20;;;;;;;-1.04;100.00;102443.34;677372;29;1038;-51
2022/02/26 00:54:50;;;;;;;10.52;7.30;;;;;;;-0.97;100.00;102439.53;673940;29;1257;-51
2022/02/26 00:55:11;;;;;;;11.07;7.50;;;;;;;-0.92;100.00;102438.16;675021;29;1007;-50
2022/02/26 00:55:32;;;;;;;11.07;7.30;;;;;;;-0.83;100.00;102437.94;673367;29;4288;-55
2022/02/26 00:55:52;;;;;;;11.93;7.17;;;;;;;-0.75;100.00;102441.03;674222;29;1333;-51
2022/02/26 00:56:12;;;;;;;11.77;6.95;;;;;;;-0.72;100.00;102439.56;676458;29;1205;-50
2022/02/26 00:56:33;;;;;;;11.67;7.20;;;;;;;-0.70;100.00;102445.69;674147;29;742;-50
2022/02/26 00:56:53;;;;;;;12.15;7.15;;;;;;;-0.73;100.00;102442.91;677953;28;3956;-50
2022/02/26 00:57:14;;;;;;;11.90;6.83;;;;;;;-0.73;100.00;102442.91;677965;28;2279;-53
2022/02/26 00:57:35;;;;;;;10.45;6.72;;;;;;;-0.74;100.00;102445.38;678328;29;1310;-51
2022/02/26 00:57:55;;;;;;;11.17;6.93;;;;;;;-0.78;100.00;102443.38;678460;28;1054;-51
2022/02/26 00:58:16;;;;;;;11.48;7.07;;;;;;;-0.81;100.00;102444.06;678843;29;4328;-53
2022/02/26 00:58:36;;;;;;;11.37;7.10;;;;;;;-0.83;100.00;102439.59;677139;29;1094;-50
2022/02/26 00:58:57;;;;;;;12.38;7.13;;;;;;;-0.86;100.00;102441.19;678269;29;1101;-52
2022/02/26 00:59:17;;;;;;;11.93;7.07;;;;;;;-0.86;100.00;102445.41;678909;29;1082;-50
2022/02/26 00:59:38;;;;;;;11.38;7.18;;;;;;;-0.89;100.00;102443.53;678545;29;2066;-52
2022/02/26 00:59:58;;;;;;;10.95;7.15;;;;;;;-0.94;100.00;102446.53;677180;29;3929;-51
2022/02/26 01:00:19;;;;;;;11.03;6.77;;;;;;;-0.97;100.00;102444.66;675717;29;1274;-53
2022/02/26 01:00:40;;;;;;;11.15;6.80;;;;;;;-0.98;100.00;102457.38;672047;29;2343;-52
2022/02/26 01:01:01;;;;;;;13.53;7.53;;;;;;;-1.01;100.00;102447.78;671466;29;1028;-55
2022/02/26 01:01:21;;;;;;;12.35;7.78;;;;;;;-1.04;100.00;102455.25;671470;29;4420;-50
2022/02/26 01:01:42;;;;;;;11.83;7.17;;;;;;;-1.07;100.00;102461.06;673181;29;1048;-52
2022/02/26 01:02:04;;;;;;;11.85;7.10;;;;;;;-1.09;100.00;102452.38;674867;29;958;-52
2022/02/26 01:02:25;;;;;;;12.57;7.07;;;;;;;-1.10;100.00;102453.16;675272;29;3249;-51
2022/02/26 01:02:46;;;;;;;11.20;6.80;;;;;;;-1.10;100.00;102462.53;680809;29;1191;-50
2022/02/26 01:03:06;;;;;;;10.53;7.00;;;;;;;-1.11;100.00;102458.19;679971;28;1150;-51
2022/02/26 01:03:27;;;;;;;10.77;7.07;;;;;;;-1.12;100.00;102469.22;679662;29;1145;-52
2022/02/26 01:03:51;;;;;;;11.83;7.47;;;;;;;-1.15;100.00;102461.31;678491;29;971;-50
2022/02/26 01:04:12;;;;;;;12.88;7.57;;;;;;;-1.18;100.00;102463.66;679290;29;1198;-53
2022/02/26 01:04:33;;;;;;;12.33;7.50;;;;;;;-1.19;100.00;102460.22;679181;29;4320;-51
2022/02/26 01:04:54;;;;;;;12.13;7.60;;;;;;;-1.18;100.00;102459.41;678320;29;951;-51
2022/02/26 01:05:15;;;;;;;12.52;7.50;;;;;;;-1.17;100.00;102463.75;678866;29;3237;-50
2022/02/26 01:05:35;;;;;;;12.05;7.10;;;;;;;-1.12;100.00;102464.09;678351;29;3607;-51
2022/02/26 01:05:56;;;;;;;11.20;7.20;;;;;;;-1.01;100.00;102458.06;678258;28;1439;-51
2022/02/26 01:06:16;;;;;;;11.50;7.25;;;;;;;-0.98;100.00;102459.94;679009;29;1058;-51
2022/02/26 01:06:36;;;;;;;11.20;7.43;;;;;;;-0.91;100.00;102457.91;678863;28;1074;-50
2022/02/26 01:06:57;;;;;;;10.00;6.88;;;;;;;-0.91;100.00;102462.19;678176;28;922;-50
2022/02/26 01:07:18;;;;;;;10.87;7.10;;;;;;;-0.94;100.00;102459.38;678612;29;4434;-53
2022/02/26 01:07:39;;;;;;;11.73;7.40;;;;;;;-0.99;100.00;102456.47;676771;29;1594;-51
2022/02/26 01:07:59;;;;;;;12.07;7.13;;;;;;;-0.99;100.00;102458.19;676160;29;1787;-50
2022/02/26 01:08:19;;;;;;;13.20;7.68;;;;;;;-1.03;100.00;102452.78;675691;29;1054;-51
2022/02/26 01:08:40;;;;;;;12.07;7.50;;;;;;;-1.01;100.00;102457.16;676169;29;1551;-55
2022/02/26 01:09:00;;;;;;;11.30;7.25;;;;;;;-0.97;100.00;102447.22;675607;29;2263;-51
2022/02/26 01:09:21;;;;;;;11.57;7.47;;;;;;;-0.89;100.00;102458.03;677125;29;1111;-51
2022/02/26 01:09:41;;;;;;;12.83;7.60;;;;;;;-0.89;100.00;102453.81;679112;29;1058;-50
2022/02/26 01:10:03;;;;;;;12.35;7.35;;;;;;;-0.93;100.00;102448.31;676207;29;959;-52
2022/02/26 01:10:24;;;;;;;12.02;7.32;;;;;;;-0.97;100.00;102454.94;676119;29;4494;-49
2022/02/26 01:10:44;;;;;;;13.88;7.40;;;;;;;-0.98;100.00;102455.72;676569;29;1102;-50
2022/02/26 01:11:05;;;;;;;11.37;7.50;;;;;;;-0.98;100.00;102460.84;676637;29;3452;-52
2022/02/26 01:11:25;;;;;;;11.10;7.53;;;;;;;-0.94;100.00;102459.38;675584;29;1479;-50
2022/02/26 01:11:45;;;;;;;12.00;7.13;;;;;;;-0.92;100.00;102460.38;676489;29;1523;-51
2022/02/26 01:12:08;;;;;;;11.53;7.10;;;;;;;-0.90;100.00;102459.72;678541;28;1643;-50
2022/02/26 01:12:28;;;;;;;11.32;7.07;;;;;;;-0.84;100.00;102460.91;676166;29;1391;-49
2022/02/26 01:12:48;;;;;;;11.40;7.43;;;;;;;-0.83;100.00;102452.44;676414;29;1261;-50
2022/02/26 01:13:09;;;;;;;11.90;7.53;;;;;;;-0.86;100.00;102451.44;676985;29;1156;-50
2022/02/26 01:13:29;;;;;;;11.77;7.20;;;;;;;-0.89;100.00;102451.25;676335;29;4466;-52
2022/02/26 01:13:50;;;;;;;11.25;7.22;;;;;;;-0.89;100.00;102452.91;675902;29;3391;-51
2022/02/26 01:14:11;;;;;;;10.33;7.20;;;;;;;-0.83;100.00;102444.72;674598;28;2370;-49
2022/02/26 01:14:33;;;;;;;10.67;7.17;;;;;;;-0.74;100.00;102445.38;679651;28;1275;-49
2022/02/26 01:14:54;;;;;;;11.00;7.22;;;;;;;-0.70;100.00;102445.69;676900;29;1301;-49
2022/02/26 01:15:14;;;;;;;10.67;7.10;;;;;;;-0.67;100.00;102450.16;676666;29;1134;-50
2022/02/26 01:15:35;;;;;;;11.73;6.88;;;;;;;-0.71;100.00;102441.38;676792;29;1521;-53
2022/02/26 01:15:55;;;;;;;12.07;6.83;;;;;;;-0.74;100.00;102451.41;676253;29;1068;-51
2022/02/26 01:16:15;;;;;;;11.13;6.88;;;;;;;-0.73;100.00;102447.16;674365;29;4325;-51
2022/02/26 01:16:36;;;;;;;10.50;7.03;;;;;;;-0.70;100.00;102448.25;676195;29;3424;-49
2022/02/26 01:16:57;;;;;;;10.70;7.28;;;;;;;-0.74;100.00;102447.94;678752;28;3568;-50
2022/02/26 01:17:18;;;;;;;10.63;7.03;;;;;;;-0.81;100.00;102453.44;678909;29;1312;-54
2022/02/26 01:17:38;;;;;;;10.77;6.97;;;;;;;-0.86;100.00;102453.09;679677;29;1118;-50
2022/02/26 01:17:58;;;;;;;11.33;7.53;;;;;;;-0.89;100.00;102458.94;677139;29;1766;-50
2022/02/26 01:18:19;;;;;;;12.20;7.40;;;;;;;-0.92;100.00;102457.81;677785;29;1090;-49
2022/02/26 01:18:39;;;;;;;12.13;7.20;;;;;;;-0.92;100.00;102460.38;677347;29;1097;-49
2022/02/26 01:19:00;;;;;;;11.82;7.60;;;;;;;-0.92;100.00;102460.38;677733;29;1059;-49
2022/02/26 01:19:21;;;;;;;11.45;7.65;;;;;;;-0.89;100.00;102465.72;674746;29;4515;-51
2022/02/26 01:19:41;;;;;;;11.30;7.17;;;;;;;-0.89;100.00;102461.50;674906;29;3525;-51
2022/02/26 01:20:02;;;;;;;11.40;7.40;;;;;;;-0.90;100.00;102466.50;674495;29;2305;-53
2022/02/26 01:20:22;;;;;;;11.63;7.75;;;;;;;-0.93;100.00;102464.63;673540;29;3197;-49
2022/02/26 01:20:43;;;;;;;12.23;7.80;;;;;;;-0.95;100.00;102466.19;675029;29;2379;-51
2022/02/26 01:21:04;;;;;;;10.83;7.53;;;;;;;-0.94;100.00;102461.94;674279;29;984;-48
2022/02/26 01:21:24;;;;;;;10.83;7.40;;;;;;;-0.96;100.00;102463.50;679048;29;1252;-50
2022/02/26 01:21:44;;;;;;;12.50;7.50;;;;;;;-0.97;100.00;102472.91;679241;29;1090;-49
2022/02/26 01:22:05;;;;;;;14.10;7.97;;;;;;;-0.99;100.00;102468.44;678544;28;934;-49
2022/02/26 01:22:26;;;;;;;15.10;7.70;;;;;;;-1.03;100.00;102457.94;678678;29;4312;-49
2022/02/26 01:22:47;;;;;;;12.83;7.57;;;;;;;-1.04;100.00;102466.44;677911;28;1497;-49
2022/02/26 01:23:08;;;;;;;11.35;7.63;;;;;;;-1.06;100.00;102473.13;679060;28;1116;-51
2022/02/26 01:23:29;;;;;;;10.52;7.68;;;;;;;-1.08;100.00;102469.56;679468;29;1204;-50
2022/02/26 01:23:49;;;;;;;11.27;7.80;;;;;;;-1.07;100.00;102471.31;679183;29;1343;-51
2022/02/26 01:24:13;;;;;;;11.57;7.43;;;;;;;-1.08;100.00;102469.56;679393;28;1251;-50
2022/02/26 01:24:33;;;;;;;9.75;7.00;;;;;;;-1.08;100.00;102473.78;679820;28;1515;-49
2022/02/26 01:24:54;;;;;;;11.95;7.50;;;;;;;-1.06;100.00;102475.69;675293;29;998;-50
2022/02/26 01:25:14;;;;;;;12.07;7.35;;;;;;;-1.04;100.00;102465.53;672607;29;4483;-52
2022/02/26 01:25:35;;;;;;;11.37;7.27;;;;;;;-0.99;100.00;102465.88;673406;29;1243;-49
2022/02/26 01:25:55;;;;;;;11.25;7.35;;;;;;;-0.95;100.00;102465.31;673415;29;1322;-49
2022/02/26 01:26:17;;;;;;;10.87;7.27;;;;;;;-0.92;100.00;102468.09;673262;29;1142;-50
2022/02/26 01:26:38;;;;;;;11.77;7.25;;;;;;;-0.87;100.00;102474.44;673190;29;1334;-50
2022/02/26 01:26:59;;;;;;;10.97;7.33;;;;;;;-0.83;100.00;102466.19;674242;29;1134;-49
2022/02/26 01:27:19;;;;;;;10.98;6.97;;;;;;;-0.78;100.00;102463.94;677394;29;940;-50
2022/02/26 01:27:40;;;;;;;10.93;6.90;;;;;;;-0.73;100.00;102462.59;677461;29;1070;-49
2022/02/26 01:28:00;;;;;;;10.77;6.90;;;;;;;-0.67;100.00;102470.69;674227;29;3095;-49
2022/02/26 01:28:22;;;;;;;11.43;6.80;;;;;;;-0.63;100.00;102469.25;672814;29;5072;-50
2022/02/26 01:28:43;;;;;;;10.57;6.80;;;;;;;-0.63;100.00;102465.00;673039;29;1400;-51
2022/02/26 01:29:04;;;;;;;11.60;7.22;;;;;;;-0.64;100.00;102472.59;673556;29;953;-49
2022/02/26 01:29:24;;;;;;;10.75;6.72;;;;;;;-0.67;100.00;102464.69;673551;29;1523;-52
2022/02/26 01:29:45;;;;;;;12.23;6.90;;;;;;;-0.69;100.00;102462.88;674690;29;1146;-51
2022/02/26 01:30:07;;;;;;;11.15;6.70;;;;;;;-0.71;100.00;102463.56;674977;29;1165;-49
2022/02/26 01:30:28;;;;;;;11.80;6.72;;;;;;;-0.74;100.00;102463.34;676352;29;1106;-50
2022/02/26 01:30:49;;;;;;;12.15;6.63;;;;;;;-0.77;100.00;102466.59;678095;29;3253;-53
2022/02/26 01:31:10;;;;;;;13.05;6.85;;;;;;;-0.81;100.00;102474.00;678205;28;3562;-52
2022/02/26 01:31:32;;;;;;;13.23;7.43;;;;;;;-0.82;100.00;102465.38;677174;29;4537;-51
2022/02/26 01:31:53;;;;;;;11.82;6.90;;;;;;;-0.84;100.00;102466.03;679385;28;1473;-50
2022/02/26 01:32:13;;;;;;;12.10;7.10;;;;;;;-0.87;100.00;102464.19;677686;29;999;-49
2022/02/26 01:32:35;;;;;;;11.40;7.22;;;;;;;-0.90;100.00;102470.00;678599;29;1169;-50
2022/02/26 01:32:55;;;;;;;13.38;7.03;;;;;;;-0.93;100.00;102471.44;678763;28;999;-50
2022/02/26 01:33:15;;;;;;;12.50;7.22;;;;;;;-0.96;100.00;102463.50;679219;29;983;-52
2022/02/26 01:33:36;;;;;;;12.30;7.10;;;;;;;-0.98;100.00;102465.06;678537;29;1833;-50
2022/02/26 01:33:56;;;;;;;14.55;7.90;;;;;;;-1.01;100.00;102470.00;678880;28;3591;-50
2022/02/26 01:34:17;;;;;;;13.60;7.60;;;;;;;-1.03;100.00;102473.34;678198;28;4470;-52
2022/02/26 01:34:37;;;;;;;12.20;7.47;;;;;;;-1.06;100.00;102478.25;679234;29;1097;-50
2022/02/26 01:34:58;;;;;;;12.13;7.23;;;;;;;-1.06;100.00;102475.69;675570;28;1631;-49
2022/02/26 01:35:18;;;;;;;11.60;7.00;;;;;;;-1.07;100.00;102476.47;676249;29;1181;-52
2022/02/26 01:35:39;;;;;;;12.97;7.07;;;;;;;-1.05;100.00;102474.91;673295;29;1071;-51
2022/02/26 01:36:00;;;;;;;13.45;7.35;;;;;;;-1.09;100.00;102470.34;672411;29;995;-52
2022/02/26 01:36:20;;;;;;;12.85;7.43;;;;;;;-1.11;100.00;102471.00;673657;29;933;-50
2022/02/26 01:36:41;;;;;;;13.30;7.63;;;;;;;-1.12;100.00;102474.34;672766;29;3341;-49
2022/02/26 01:37:01;;;;;;;15.43;8.43;;;;;;;-1.16;100.00;102475.81;674371;29;1546;-50
2022/02/26 01:37:22;;;;;;;15.00;8.30;;;;;;;-1.18;100.00;102474.81;675056;29;4381;-53
2022/02/26 01:37:42;;;;;;;11.33;7.37;;;;;;;-1.14;100.00;102479.38;678674;29;956;-53
2022/02/26 01:38:02;;;;;;;11.13;7.50;;;;;;;-1.09;100.00;102472.91;676193;29;987;-50